^^

Nearby METAR Reports

 

EGNV - Tees-Side, United Kingdom
Distance from station: E 6mi, 10km
Updated: 13/07/2024 19:50
Light rain, Mostly cloudy
Light rain, Mostly cloudy
 Wind from NNW
Wind: NNW 9 mph, 15 km/h
Temperature: 13°C
Dew Point: 11°C
Humidity: 88%
Barometer: 1012 hPa
Summary: Light rain
Clouds: Mostly cloudy
Visibility: 6 miles, 10 km
Cloud details: Mostly cloudy 457 m
2024/07/13 18:50 EGNV 131850Z 33008KT 9999 -RA BKN015 13/11 Q1012
EGXE - Leeming Raf, United Kingdom
Distance from station: S 16mi, 25km
Updated: 13/07/2024 19:50
Light rain, Overcast
Light rain, Overcast
 Wind from N
Wind: N 9 mph, 15 km/h
Temperature: 13°C
Dew Point: 11°C
Humidity: 88%
Barometer: 1012 hPa
Summary: Light rain
Clouds: Overcast
Visibility: 6 miles, 10 km
Cloud details: Overcast 488 m
2024/07/13 18:50 EGXE 131850Z AUTO 35008KT 9999 -RA OVC016/// 13/11 Q1012
 
EGXZ - Topcliffe Raf, United Kingdom
Distance from station: SSE 23mi, 36km
Updated: 13/07/2024 19:50
Light rain, Overcast
Light rain, Overcast
 Wind from NNW
Wind: NNW 9 mph, 15 km/h
Temperature: 13°C
Dew Point: 11°C
Humidity: 88%
Barometer: 1012 hPa
Summary: Light rain
Clouds: Overcast
Visibility: 6 miles, 10 km
Cloud details: Overcast 427 m
2024/07/13 18:50 EGXZ 131850Z AUTO 33008KT 9999 -RA OVC014/// 13/11 Q1012
EGNT - Newcastle, United Kingdom
Distance from station: N 35mi, 57km
Updated: 13/07/2024 19:50
Light rain, Mostly cloudy
Light rain, Mostly cloudy
 Wind from NNW
Wind: NNW 9 mph, 15 km/h
Temperature: 12°C
Dew Point: 11°C
Humidity: 94%
Barometer: 1012 hPa
Summary: Light rain
Clouds: Mostly cloudy
Visibility: 6 miles, 9 km
Cloud details: Mostly cloudy 274 m
2024/07/13 18:50 EGNT 131850Z 33008KT 9000 -RA BKN009 12/11 Q1012
 
EGNM - Leeds And Bradfo, United Kingdom
Distance from station: S 44mi, 71km
Updated: 13/07/2024 19:50
Light rain, Showers, Partly cloudy
Light rain, Showers, Partly cloudy
 Wind from NW
Wind: NW 7 mph, 11 km/h
Temperature: 13°C
Dew Point: 11°C
Humidity: 88%
Barometer: 1012 hPa
Summary: Light rain, Showers
Clouds: Partly cloudy
Visibility: 6 miles, 10 km
Cloud details: Partly cloudy 366 m
Partly cloudy 1067 m
2024/07/13 18:50 EGNM 131850Z 31006KT 9999 -SHRA SCT012 SCT035 13/11 Q1012